sensor_id;sensor_type;location;lat;lon;timestamp;pressure;altitude;pressure_sealevel;temperature;humidity
62164;BME280;48149;51.132;7.178;2023-02-28T00:00:09;99897.69;;;12.95;33.92
62164;BME280;48149;51.132;7.178;2023-02-28T00:02:38;99897.47;;;12.49;34.25
62164;BME280;48149;51.132;7.178;2023-02-28T00:05:04;99904.75;;;13.48;33.80
62164;BME280;48149;51.132;7.178;2023-02-28T00:07:30;99897.28;;;12.50;33.77
62164;BME280;48149;51.132;7.178;2023-02-28T00:09:56;99905.47;;;13.16;33.86
62164;BME280;48149;51.132;7.178;2023-02-28T00:12:21;99890.38;;;11.59;34.23
62164;BME280;48149;51.132;7.178;2023-02-28T00:14:46;99895.47;;;12.16;35.06
62164;BME280;48149;51.132;7.178;2023-02-28T00:17:12;99898.00;;;12.03;35.46
62164;BME280;48149;51.132;7.178;2023-02-28T00:19:37;99900.03;;;12.76;35.12
62164;BME280;48149;51.132;7.178;2023-02-28T00:22:05;99903.09;;;12.87;33.51
62164;BME280;48149;51.132;7.178;2023-02-28T00:24:30;99895.19;;;12.80;34.44
62164;BME280;48149;51.132;7.178;2023-02-28T00:26:58;99894.19;;;12.40;34.67
62164;BME280;48149;51.132;7.178;2023-02-28T00:29:24;99893.28;;;12.61;34.31
62164;BME280;48149;51.132;7.178;2023-02-28T00:31:49;99894.16;;;12.34;34.25
62164;BME280;48149;51.132;7.178;2023-02-28T00:34:14;99891.41;;;12.14;34.46
62164;BME280;48149;51.132;7.178;2023-02-28T00:36:40;99894.41;;;12.11;35.00
62164;BME280;48149;51.132;7.178;2023-02-28T00:39:08;99889.97;;;12.87;34.71
62164;BME280;48149;51.132;7.178;2023-02-28T00:41:34;99893.44;;;11.84;34.69
62164;BME280;48149;51.132;7.178;2023-02-28T00:44:01;99901.03;;;12.35;34.92
62164;BME280;48149;51.132;7.178;2023-02-28T00:46:27;99892.59;;;12.46;34.27
62164;BME280;48149;51.132;7.178;2023-02-28T00:48:52;99892.28;;;12.21;34.97
62164;BME280;48149;51.132;7.178;2023-02-28T00:51:17;99883.88;;;12.73;34.30
62164;BME280;48149;51.132;7.178;2023-02-28T00:53:43;99886.59;;;12.17;34.47
62164;BME280;48149;51.132;7.178;2023-02-28T00:56:08;99893.16;;;12.69;34.28
62164;BME280;48149;51.132;7.178;2023-02-28T00:58:36;99890.31;;;12.70;34.50
62164;BME280;48149;51.132;7.178;2023-02-28T01:01:02;99888.78;;;12.14;34.34
62164;BME280;48149;51.132;7.178;2023-02-28T01:03:27;99894.47;;;12.99;33.39
62164;BME280;48149;51.132;7.178;2023-02-28T01:05:53;99892.94;;;13.18;33.21
62164;BME280;48149;51.132;7.178;2023-02-28T01:08:20;99877.59;;;13.41;32.51
62164;BME280;48149;51.132;7.178;2023-02-28T01:10:46;99879.78;;;13.24;32.88
62164;BME280;48149;51.132;7.178;2023-02-28T01:13:19;99886.72;;;13.71;32.92
62164;BME280;48149;51.132;7.178;2023-02-28T01:15:52;99893.38;;;12.80;32.75
62164;BME280;48149;51.132;7.178;2023-02-28T01:18:18;99885.91;;;14.10;32.36
62164;BME280;48149;51.132;7.178;2023-02-28T01:20:45;99892.25;;;13.03;32.65
62164;BME280;48149;51.132;7.178;2023-02-28T01:23:19;99890.97;;;13.59;32.88
62164;BME280;48149;51.132;7.178;2023-02-28T01:25:48;99891.63;;;12.94;33.92
62164;BME280;48149;51.132;7.178;2023-02-28T01:28:16;99885.59;;;13.07;33.83
62164;BME280;48149;51.132;7.178;2023-02-28T01:30:47;99883.97;;;13.06;33.60
62164;BME280;48149;51.132;7.178;2023-02-28T01:33:14;99885.28;;;12.35;33.86
62164;BME280;48149;51.132;7.178;2023-02-28T01:35:40;99888.81;;;12.55;33.89
62164;BME280;48149;51.132;7.178;2023-02-28T01:38:05;99883.84;;;13.33;33.48
62164;BME280;48149;51.132;7.178;2023-02-28T01:40:31;99881.16;;;12.53;33.91
62164;BME280;48149;51.132;7.178;2023-02-28T01:42:59;99876.81;;;13.67;33.66
62164;BME280;48149;51.132;7.178;2023-02-28T01:45:31;99871.34;;;13.81;32.16
62164;BME280;48149;51.132;7.178;2023-02-28T01:48:00;99876.97;;;12.65;32.81
62164;BME280;48149;51.132;7.178;2023-02-28T01:50:28;99874.78;;;13.62;33.42
62164;BME280;48149;51.132;7.178;2023-02-28T01:52:55;99866.66;;;13.97;32.26
62164;BME280;48149;51.132;7.178;2023-02-28T01:55:28;99863.00;;;14.17;31.31
62164;BME280;48149;51.132;7.178;2023-02-28T01:58:10;99863.03;;;13.71;31.33
62164;BME280;48149;51.132;7.178;2023-02-28T02:00:47;99865.38;;;13.07;32.20
62164;BME280;48149;51.132;7.178;2023-02-28T02:03:13;99861.38;;;13.24;32.23
62164;BME280;48149;51.132;7.178;2023-02-28T02:05:40;99855.78;;;13.67;32.47
62164;BME280;48149;51.132;7.178;2023-02-28T02:08:10;99862.22;;;13.31;33.04
62164;BME280;48149;51.132;7.178;2023-02-28T02:13:43;99859.22;;;12.33;33.63
62164;BME280;48149;51.132;7.178;2023-02-28T02:34:46;99840.56;;;13.16;32.90
62164;BME280;48149;51.132;7.178;2023-02-28T02:37:21;99846.09;;;12.87;33.25
62164;BME280;48149;51.132;7.178;2023-02-28T02:39:57;99842.78;;;13.13;32.90
62164;BME280;48149;51.132;7.178;2023-02-28T02:47:42;99846.44;;;13.77;31.77
62164;BME280;48149;51.132;7.178;2023-02-28T02:50:14;99844.28;;;12.88;32.53
62164;BME280;48149;51.132;7.178;2023-02-28T02:52:45;99832.84;;;13.15;32.60
62164;BME280;48149;51.132;7.178;2023-02-28T02:55:14;99840.78;;;13.41;32.92
62164;BME280;48149;51.132;7.178;2023-02-28T02:57:51;99830.06;;;12.62;33.35
62164;BME280;48149;51.132;7.178;2023-02-28T03:00:23;99839.22;;;12.39;33.90
62164;BME280;48149;51.132;7.178;2023-02-28T03:02:50;99841.97;;;12.17;34.56
62164;BME280;48149;51.132;7.178;2023-02-28T03:05:21;99840.31;;;12.10;34.38
62164;BME280;48149;51.132;7.178;2023-02-28T03:07:48;99845.00;;;12.21;34.32
62164;BME280;48149;51.132;7.178;2023-02-28T03:10:33;99840.81;;;12.80;34.14
62164;BME280;48149;51.132;7.178;2023-02-28T03:16:07;99848.34;;;11.53;35.00
62164;BME280;48149;51.132;7.178;2023-02-28T03:21:16;99844.09;;;12.35;35.50
62164;BME280;48149;51.132;7.178;2023-02-28T03:23:53;99839.09;;;11.78;35.10
62164;BME280;48149;51.132;7.178;2023-02-28T03:26:24;99828.53;;;11.99;34.27
62164;BME280;48149;51.132;7.178;2023-02-28T03:31:21;99832.22;;;11.56;34.32
62164;BME280;48149;51.132;7.178;2023-02-28T03:33:58;99834.03;;;12.11;34.30
62164;BME280;48149;51.132;7.178;2023-02-28T03:36:35;99836.47;;;11.36;34.85
62164;BME280;48149;51.132;7.178;2023-02-28T03:39:10;99827.75;;;11.07;35.07
62164;BME280;48149;51.132;7.178;2023-02-28T03:41:51;99832.47;;;10.97;35.20
62164;BME280;48149;51.132;7.178;2023-02-28T03:44:21;99826.75;;;11.30;35.13
62164;BME280;48149;51.132;7.178;2023-02-28T03:46:52;99830.81;;;10.90;34.98
62164;BME280;48149;51.132;7.178;2023-02-28T03:49:23;99834.94;;;10.84;35.01
62164;BME280;48149;51.132;7.178;2023-02-28T03:51:57;99833.63;;;10.74;35.01
62164;BME280;48149;51.132;7.178;2023-02-28T03:54:27;99837.19;;;10.51;34.92
62164;BME280;48149;51.132;7.178;2023-02-28T03:57:06;99841.75;;;10.79;34.97
62164;BME280;48149;51.132;7.178;2023-02-28T03:59:39;99843.63;;;10.85;34.39
62164;BME280;48149;51.132;7.178;2023-02-28T04:02:07;99841.06;;;10.91;34.34
62164;BME280;48149;51.132;7.178;2023-02-28T04:04:32;99838.44;;;11.06;34.13
62164;BME280;48149;51.132;7.178;2023-02-28T04:07:03;99839.66;;;10.89;34.89
62164;BME280;48149;51.132;7.178;2023-02-28T04:09:32;99843.44;;;10.36;34.97
62164;BME280;48149;51.132;7.178;2023-02-28T04:12:02;99848.13;;;10.26;35.44
62164;BME280;48149;51.132;7.178;2023-02-28T04:14:30;99849.16;;;10.75;34.75
62164;BME280;48149;51.132;7.178;2023-02-28T04:16:55;99845.59;;;10.47;34.88
62164;BME280;48149;51.132;7.178;2023-02-28T04:19:28;99846.38;;;10.03;35.44
62164;BME280;48149;51.132;7.178;2023-02-28T04:21:54;99845.34;;;11.13;34.49
62164;BME280;48149;51.132;7.178;2023-02-28T04:24:20;99848.22;;;10.61;35.66
62164;BME280;48149;51.132;7.178;2023-02-28T04:26:50;99845.50;;;10.11;36.02
62164;BME280;48149;51.132;7.178;2023-02-28T04:29:22;99851.75;;;9.73;36.32
62164;BME280;48149;51.132;7.178;2023-02-28T04:31:50;99851.75;;;7.64;37.57
62164;BME280;48149;51.132;7.178;2023-02-28T04:34:16;99855.19;;;7.32;40.03
62164;BME280;48149;51.132;7.178;2023-02-28T04:36:45;99849.31;;;7.70;40.18
62164;BME280;48149;51.132;7.178;2023-02-28T04:39:11;99859.66;;;8.19;39.79
62164;BME280;48149;51.132;7.178;2023-02-28T04:41:36;99849.72;;;9.23;39.35
62164;BME280;48149;51.132;7.178;2023-02-28T04:44:05;99860.84;;;10.29;36.64
62164;BME280;48149;51.132;7.178;2023-02-28T04:46:32;99859.34;;;10.85;35.48
62164;BME280;48149;51.132;7.178;2023-02-28T04:48:58;99865.78;;;9.57;36.06
62164;BME280;48149;51.132;7.178;2023-02-28T04:51:29;99867.00;;;8.15;37.74
62164;BME280;48149;51.132;7.178;2023-02-28T04:53:54;99866.00;;;8.32;38.20
62164;BME280;48149;51.132;7.178;2023-02-28T04:56:20;99871.63;;;7.57;38.77
62164;BME280;48149;51.132;7.178;2023-02-28T04:58:46;99873.75;;;7.45;39.01
62164;BME280;48149;51.132;7.178;2023-02-28T05:01:20;99867.34;;;8.04;39.96
62164;BME280;48149;51.132;7.178;2023-02-28T05:03:55;99868.88;;;7.34;40.00
62164;BME280;48149;51.132;7.178;2023-02-28T05:06:22;99870.25;;;8.25;39.72
62164;BME280;48149;51.132;7.178;2023-02-28T05:08:50;99874.47;;;8.26;39.28
62164;BME280;48149;51.132;7.178;2023-02-28T05:11:17;99875.16;;;8.12;39.02
62164;BME280;48149;51.132;7.178;2023-02-28T05:13:45;99878.44;;;7.82;39.52
62164;BME280;48149;51.132;7.178;2023-02-28T05:16:13;99869.44;;;8.72;38.61
62164;BME280;48149;51.132;7.178;2023-02-28T05:18:39;99875.69;;;7.83;39.13
62164;BME280;48149;51.132;7.178;2023-02-28T05:21:12;99876.03;;;7.40;38.72
62164;BME280;48149;51.132;7.178;2023-02-28T05:23:48;99880.44;;;7.39;39.63
62164;BME280;48149;51.132;7.178;2023-02-28T05:26:16;99884.81;;;7.95;38.72
62164;BME280;48149;51.132;7.178;2023-02-28T05:28:44;99881.72;;;8.00;39.33
62164;BME280;48149;51.132;7.178;2023-02-28T05:31:12;99879.09;;;8.00;38.92
62164;BME280;48149;51.132;7.178;2023-02-28T05:33:40;99879.25;;;7.98;39.25
62164;BME280;48149;51.132;7.178;2023-02-28T05:36:06;99880.75;;;8.95;38.17
62164;BME280;48149;51.132;7.178;2023-02-28T05:38:31;99878.69;;;8.35;37.39
62164;BME280;48149;51.132;7.178;2023-02-28T05:40:57;99878.09;;;8.72;37.18
62164;BME280;48149;51.132;7.178;2023-02-28T05:43:22;99881.25;;;8.90;37.44
62164;BME280;48149;51.132;7.178;2023-02-28T05:45:48;99875.69;;;8.93;37.23
62164;BME280;48149;51.132;7.178;2023-02-28T05:48:16;99874.03;;;8.70;36.85
62164;BME280;48149;51.132;7.178;2023-02-28T05:50:43;99877.25;;;8.33;37.54
62164;BME280;48149;51.132;7.178;2023-02-28T05:53:11;99874.91;;;9.16;36.95
62164;BME280;48149;51.132;7.178;2023-02-28T05:55:36;99878.06;;;8.33;37.27
62164;BME280;48149;51.132;7.178;2023-02-28T05:58:05;99877.53;;;8.85;37.19
62164;BME280;48149;51.132;7.178;2023-02-28T06:00:31;99882.31;;;8.10;37.24
62164;BME280;48149;51.132;7.178;2023-02-28T06:02:58;99880.34;;;8.36;37.30
62164;BME280;48149;51.132;7.178;2023-02-28T06:05:26;99885.06;;;8.25;37.45
62164;BME280;48149;51.132;7.178;2023-02-28T06:07:55;99880.44;;;8.90;37.14
62164;BME280;48149;51.132;7.178;2023-02-28T06:10:22;99880.53;;;8.35;37.54
62164;BME280;48149;51.132;7.178;2023-02-28T06:12:48;99885.72;;;8.27;37.60
62164;BME280;48149;51.132;7.178;2023-02-28T06:15:14;99876.53;;;7.68;37.71
62164;BME280;48149;51.132;7.178;2023-02-28T06:17:42;99888.38;;;7.94;37.79
62164;BME280;48149;51.132;7.178;2023-02-28T06:20:13;99882.38;;;7.70;37.93
62164;BME280;48149;51.132;7.178;2023-02-28T06:22:39;99887.91;;;7.91;37.97
62164;BME280;48149;51.132;7.178;2023-02-28T06:25:05;99886.91;;;7.92;37.65
62164;BME280;48149;51.132;7.178;2023-02-28T06:27:31;99889.81;;;8.21;37.71
62164;BME280;48149;51.132;7.178;2023-02-28T06:29:59;99890.66;;;8.99;36.82
62164;BME280;48149;51.132;7.178;2023-02-28T06:32:27;99897.78;;;8.20;37.06
62164;BME280;48149;51.132;7.178;2023-02-28T06:34:52;99899.63;;;7.95;37.35
62164;BME280;48149;51.132;7.178;2023-02-28T06:37:18;99909.38;;;8.17;37.77
62164;BME280;48149;51.132;7.178;2023-02-28T06:39:43;99920.00;;;7.91;37.56
62164;BME280;48149;51.132;7.178;2023-02-28T06:42:11;99914.50;;;8.66;37.03
62164;BME280;48149;51.132;7.178;2023-02-28T06:44:36;99909.72;;;8.14;36.70
62164;BME280;48149;51.132;7.178;2023-02-28T06:47:04;99913.28;;;8.29;36.98
62164;BME280;48149;51.132;7.178;2023-02-28T06:49:32;99915.09;;;8.13;37.12
62164;BME280;48149;51.132;7.178;2023-02-28T06:51:58;99919.97;;;8.24;36.88
62164;BME280;48149;51.132;7.178;2023-02-28T06:54:28;99926.34;;;7.89;36.65
62164;BME280;48149;51.132;7.178;2023-02-28T06:56:53;99927.66;;;7.77;37.16
62164;BME280;48149;51.132;7.178;2023-02-28T06:59:27;99934.00;;;8.15;36.77
62164;BME280;48149;51.132;7.178;2023-02-28T07:02:02;99932.97;;;8.56;36.31
62164;BME280;48149;51.132;7.178;2023-02-28T07:04:37;99943.78;;;8.92;36.19
62164;BME280;48149;51.132;7.178;2023-02-28T07:07:13;99937.88;;;9.21;35.47
62164;BME280;48149;51.132;7.178;2023-02-28T07:09:38;99934.59;;;8.57;35.61
62164;BME280;48149;51.132;7.178;2023-02-28T07:12:06;99935.16;;;8.28;35.76
62164;BME280;48149;51.132;7.178;2023-02-28T07:14:31;99942.00;;;8.05;35.53
62164;BME280;48149;51.132;7.178;2023-02-28T07:16:57;99943.59;;;8.38;35.67
62164;BME280;48149;51.132;7.178;2023-02-28T07:19:22;99940.66;;;8.49;35.01
62164;BME280;48149;51.132;7.178;2023-02-28T07:21:53;99945.56;;;9.22;34.65
62164;BME280;48149;51.132;7.178;2023-02-28T07:24:18;99950.13;;;8.42;34.71
62164;BME280;48149;51.132;7.178;2023-02-28T07:26:46;99943.66;;;9.16;34.37
62164;BME280;48149;51.132;7.178;2023-02-28T07:29:12;99947.22;;;8.76;33.97
62164;BME280;48149;51.132;7.178;2023-02-28T07:31:37;99944.00;;;9.13;34.24
62164;BME280;48149;51.132;7.178;2023-02-28T07:34:02;99942.84;;;8.77;34.29
62164;BME280;48149;51.132;7.178;2023-02-28T07:36:31;99946.88;;;9.18;34.13
62164;BME280;48149;51.132;7.178;2023-02-28T07:38:59;99944.13;;;9.20;33.89
62164;BME280;48149;51.132;7.178;2023-02-28T07:41:27;99956.22;;;9.13;33.45
62164;BME280;48149;51.132;7.178;2023-02-28T07:43:59;99939.16;;;9.78;33.76
62164;BME280;48149;51.132;7.178;2023-02-28T07:46:24;99951.00;;;9.66;33.19
62164;BME280;48149;51.132;7.178;2023-02-28T07:48:50;99943.44;;;9.94;33.10
62164;BME280;48149;51.132;7.178;2023-02-28T07:51:16;99941.75;;;9.55;32.38
62164;BME280;48149;51.132;7.178;2023-02-28T07:53:59;99940.44;;;9.82;32.77
62164;BME280;48149;51.132;7.178;2023-02-28T07:56:24;99950.03;;;9.67;32.25
62164;BME280;48149;51.132;7.178;2023-02-28T07:58:59;99941.38;;;10.27;31.50
62164;BME280;48149;51.132;7.178;2023-02-28T08:01:30;99939.69;;;9.51;31.79
62164;BME280;48149;51.132;7.178;2023-02-28T08:03:55;99942.81;;;10.88;31.88
62164;BME280;48149;51.132;7.178;2023-02-28T08:06:40;99952.22;;;10.38;32.03
62164;BME280;48149;51.132;7.178;2023-02-28T08:09:10;99948.88;;;9.16;32.01
62164;BME280;48149;51.132;7.178;2023-02-28T08:11:36;99958.25;;;10.39;31.89
62164;BME280;48149;51.132;7.178;2023-02-28T08:14:02;99955.22;;;10.64;31.03
62164;BME280;48149;51.132;7.178;2023-02-28T08:16:27;99955.25;;;11.15;30.71
62164;BME280;48149;51.132;7.178;2023-02-28T08:18:55;99949.59;;;10.01;30.95
62164;BME280;48149;51.132;7.178;2023-02-28T08:21:32;99953.97;;;9.09;31.66
62164;BME280;48149;51.132;7.178;2023-02-28T08:24:00;99952.53;;;9.83;32.07
62164;BME280;48149;51.132;7.178;2023-02-28T08:26:26;99949.47;;;10.17;31.28
62164;BME280;48149;51.132;7.178;2023-02-28T08:28:51;99954.19;;;10.36;31.12
62164;BME280;48149;51.132;7.178;2023-02-28T08:31:20;99954.72;;;10.46;30.91
62164;BME280;48149;51.132;7.178;2023-02-28T08:34:11;99951.16;;;11.48;30.09
62164;BME280;48149;51.132;7.178;2023-02-28T08:37:15;99954.28;;;10.57;30.36
62164;BME280;48149;51.132;7.178;2023-02-28T08:42:57;99958.41;;;11.25;29.81
62164;BME280;48149;51.132;7.178;2023-02-28T08:45:24;99961.34;;;11.22;30.08
62164;BME280;48149;51.132;7.178;2023-02-28T08:47:49;99954.00;;;10.82;30.31
62164;BME280;48149;51.132;7.178;2023-02-28T08:53:16;99951.81;;;9.89;30.38
62164;BME280;48149;51.132;7.178;2023-02-28T08:56:03;99963.13;;;12.49;29.38
62164;BME280;48149;51.132;7.178;2023-02-28T08:58:38;99957.84;;;12.14;29.44
62164;BME280;48149;51.132;7.178;2023-02-28T09:01:11;99966.66;;;10.93;29.12
62164;BME280;48149;51.132;7.178;2023-02-28T09:03:37;99954.38;;;11.29;29.69
62164;BME280;48149;51.132;7.178;2023-02-28T09:06:13;99955.09;;;12.22;28.41
62164;BME280;48149;51.132;7.178;2023-02-28T09:08:45;99955.34;;;13.57;27.97
62164;BME280;48149;51.132;7.178;2023-02-28T09:17:17;99933.72;;;18.26;21.58
62164;BME280;48149;51.132;7.178;2023-02-28T09:19:48;99942.97;;;17.41;22.23
62164;BME280;48149;51.132;7.178;2023-02-28T09:22:42;99938.78;;;20.97;20.66
62164;BME280;48149;51.132;7.178;2023-02-28T09:25:10;99939.09;;;19.74;20.26
62164;BME280;48149;51.132;7.178;2023-02-28T09:27:58;99940.88;;;23.83;18.60
62164;BME280;48149;51.132;7.178;2023-02-28T09:30:26;99942.03;;;18.41;20.81
62164;BME280;48149;51.132;7.178;2023-02-28T09:32:56;99946.72;;;17.22;22.75
62164;BME280;48149;51.132;7.178;2023-02-28T09:35:29;99937.38;;;17.49;22.18
62164;BME280;48149;51.132;7.178;2023-02-28T09:37:55;99935.41;;;15.30;21.41
62164;BME280;48149;51.132;7.178;2023-02-28T09:40:37;99948.88;;;16.95;22.89
62164;BME280;48149;51.132;7.178;2023-02-28T09:43:04;99946.69;;;13.09;25.13
62164;BME280;48149;51.132;7.178;2023-02-28T09:45:33;99948.50;;;13.88;25.25
62164;BME280;48149;51.132;7.178;2023-02-28T09:48:04;99946.97;;;15.98;25.69
62164;BME280;48149;51.132;7.178;2023-02-28T09:53:19;99946.78;;;12.47;27.16
62164;BME280;48149;51.132;7.178;2023-02-28T09:55:55;99949.31;;;14.48;27.12
62164;BME280;48149;51.132;7.178;2023-02-28T09:58:23;99952.28;;;12.58;27.22
62164;BME280;48149;51.132;7.178;2023-02-28T10:01:05;99943.34;;;14.72;26.06
62164;BME280;48149;51.132;7.178;2023-02-28T10:03:35;99947.63;;;16.61;25.10
62164;BME280;48149;51.132;7.178;2023-02-28T10:06:08;99944.69;;;14.94;25.16
62164;BME280;48149;51.132;7.178;2023-02-28T10:08:52;99945.59;;;16.14;23.58
62164;BME280;48149;51.132;7.178;2023-02-28T10:11:18;99945.00;;;18.80;23.26
62164;BME280;48149;51.132;7.178;2023-02-28T10:16:14;99938.72;;;19.82;22.04
62164;BME280;48149;51.132;7.178;2023-02-28T10:18:43;99949.31;;;17.58;22.73
62164;BME280;48149;51.132;7.178;2023-02-28T10:21:19;99939.41;;;15.39;24.81
62164;BME280;48149;51.132;7.178;2023-02-28T10:23:45;99939.69;;;18.80;22.78
62164;BME280;48149;51.132;7.178;2023-02-28T10:26:13;99945.50;;;17.36;23.01
62164;BME280;48149;51.132;7.178;2023-02-28T10:28:40;99938.88;;;14.79;24.27
62164;BME280;48149;51.132;7.178;2023-02-28T10:31:06;99936.25;;;15.93;25.06
62164;BME280;48149;51.132;7.178;2023-02-28T10:33:34;99941.44;;;14.99;24.84
62164;BME280;48149;51.132;7.178;2023-02-28T10:36:00;99940.91;;;16.40;23.79
62164;BME280;48149;51.132;7.178;2023-02-28T10:38:33;99946.75;;;15.99;24.23
62164;BME280;48149;51.132;7.178;2023-02-28T10:43:33;99934.94;;;15.02;25.27
62164;BME280;48149;51.132;7.178;2023-02-28T10:48:34;99940.66;;;16.67;23.84
62164;BME280;48149;51.132;7.178;2023-02-28T10:51:01;99933.41;;;15.94;24.73
62164;BME280;48149;51.132;7.178;2023-02-28T10:56:19;99921.41;;;18.20;23.34
62164;BME280;48149;51.132;7.178;2023-02-28T11:03:54;99918.97;;;18.42;22.60
62164;BME280;48149;51.132;7.178;2023-02-28T11:06:20;99913.63;;;15.79;23.93
62164;BME280;48149;51.132;7.178;2023-02-28T11:08:47;99916.88;;;17.97;24.07
62164;BME280;48149;51.132;7.178;2023-02-28T11:11:14;99917.69;;;16.67;24.04
62164;BME280;48149;51.132;7.178;2023-02-28T11:13:42;99918.53;;;15.00;25.57
62164;BME280;48149;51.132;7.178;2023-02-28T11:16:10;99919.72;;;20.07;23.50
62164;BME280;48149;51.132;7.178;2023-02-28T11:18:44;99910.72;;;20.90;21.24
62164;BME280;48149;51.132;7.178;2023-02-28T11:21:15;99913.25;;;22.60;20.54
62164;BME280;48149;51.132;7.178;2023-02-28T11:23:42;99912.44;;;22.60;19.76
62164;BME280;48149;51.132;7.178;2023-02-28T11:26:07;99917.78;;;21.81;19.68
62164;BME280;48149;51.132;7.178;2023-02-28T11:28:40;99905.78;;;19.10;21.05
62164;BME280;48149;51.132;7.178;2023-02-28T11:33:41;99915.13;;;17.38;22.21
62164;BME280;48149;51.132;7.178;2023-02-28T11:36:14;99911.44;;;17.81;22.92
62164;BME280;48149;51.132;7.178;2023-02-28T11:38:41;99918.72;;;18.32;22.91
62164;BME280;48149;51.132;7.178;2023-02-28T11:48:51;99905.75;;;23.14;20.20
62164;BME280;48149;51.132;7.178;2023-02-28T11:51:35;99903.91;;;21.79;20.07
62164;BME280;48149;51.132;7.178;2023-02-28T11:56:32;99900.75;;;23.99;17.99
62164;BME280;48149;51.132;7.178;2023-02-28T11:59:04;99909.91;;;22.80;18.92
62164;BME280;48149;51.132;7.178;2023-02-28T12:12:15;99888.44;;;20.31;19.38
62164;BME280;48149;51.132;7.178;2023-02-28T12:22:31;99884.22;;;21.21;18.78
62164;BME280;48149;51.132;7.178;2023-02-28T12:27:33;99881.53;;;20.13;19.60
62164;BME280;48149;51.132;7.178;2023-02-28T12:30:16;99883.63;;;19.94;20.72
62164;BME280;48149;51.132;7.178;2023-02-28T12:32:45;99878.88;;;16.61;22.18
62164;BME280;48149;51.132;7.178;2023-02-28T12:35:13;99874.50;;;17.44;23.29
62164;BME280;48149;51.132;7.178;2023-02-28T12:37:41;99873.09;;;17.00;22.85
62164;BME280;48149;51.132;7.178;2023-02-28T12:42:38;99861.63;;;17.48;23.40
62164;BME280;48149;51.132;7.178;2023-02-28T12:45:10;99862.03;;;17.75;22.75
62164;BME280;48149;51.132;7.178;2023-02-28T12:47:38;99841.78;;;17.27;23.58
62164;BME280;48149;51.132;7.178;2023-02-28T12:50:09;99849.88;;;17.44;23.57
62164;BME280;48149;51.132;7.178;2023-02-28T12:55:10;99847.47;;;18.47;22.90
62164;BME280;48149;51.132;7.178;2023-02-28T12:57:43;99848.53;;;16.82;23.41
62164;BME280;48149;51.132;7.178;2023-02-28T13:00:14;99833.25;;;18.01;22.91
62164;BME280;48149;51.132;7.178;2023-02-28T13:07:41;99833.69;;;18.22;22.91
62164;BME280;48149;51.132;7.178;2023-02-28T13:10:14;99829.78;;;17.13;24.09
62164;BME280;48149;51.132;7.178;2023-02-28T13:12:48;99825.38;;;18.30;23.56
62164;BME280;48149;51.132;7.178;2023-02-28T13:17:48;99823.91;;;18.74;23.25
62164;BME280;48149;51.132;7.178;2023-02-28T13:20:21;99821.22;;;22.06;20.85
62164;BME280;48149;51.132;7.178;2023-02-28T13:22:48;99823.13;;;24.24;18.88
62164;BME280;48149;51.132;7.178;2023-02-28T13:27:58;99813.81;;;24.11;17.78
62164;BME280;48149;51.132;7.178;2023-02-28T13:36:36;99817.56;;;28.87;15.20
62164;BME280;48149;51.132;7.178;2023-02-28T13:38:49;99800.06;;;26.60;16.03
62164;BME280;48149;51.132;7.178;2023-02-28T13:44:12;99803.31;;;24.25;17.82
62164;BME280;48149;51.132;7.178;2023-02-28T13:51:47;99804.91;;;29.85;15.16
62164;BME280;48149;51.132;7.178;2023-02-28T13:59:26;99795.75;;;27.66;15.01
62164;BME280;48149;51.132;7.178;2023-02-28T14:04:40;99790.88;;;25.71;16.36
62164;BME280;48149;51.132;7.178;2023-02-28T14:07:08;99787.84;;;26.01;16.38
62164;BME280;48149;51.132;7.178;2023-02-28T14:09:41;99786.00;;;24.66;16.60
62164;BME280;48149;51.132;7.178;2023-02-28T14:14:55;99773.00;;;26.32;16.84
62164;BME280;48149;51.132;7.178;2023-02-28T14:17:20;99777.41;;;27.68;15.47
62164;BME280;48149;51.132;7.178;2023-02-28T14:19:46;99771.88;;;26.57;15.91
62164;BME280;48149;51.132;7.178;2023-02-28T14:35:19;99778.03;;;28.05;15.81
62164;BME280;48149;51.132;7.178;2023-02-28T14:37:45;99775.44;;;30.71;14.36
62164;BME280;48149;51.132;7.178;2023-02-28T14:40:12;99781.22;;;28.48;14.98
62164;BME280;48149;51.132;7.178;2023-02-28T14:42:39;99773.91;;;26.65;16.33
62164;BME280;48149;51.132;7.178;2023-02-28T14:45:21;99781.16;;;28.76;15.31
62164;BME280;48149;51.132;7.178;2023-02-28T14:47:46;99771.00;;;27.50;15.85
62164;BME280;48149;51.132;7.178;2023-02-28T14:50:19;99768.81;;;26.64;16.21
62164;BME280;48149;51.132;7.178;2023-02-28T14:52:45;99772.63;;;25.96;16.48
62164;BME280;48149;51.132;7.178;2023-02-28T14:55:12;99767.50;;;26.85;16.44
62164;BME280;48149;51.132;7.178;2023-02-28T14:57:40;99768.63;;;30.08;14.82
62164;BME280;48149;51.132;7.178;2023-02-28T15:00:16;99777.03;;;29.14;14.75
62164;BME280;48149;51.132;7.178;2023-02-28T15:02:45;99773.16;;;25.07;16.18
62164;BME280;48149;51.132;7.178;2023-02-28T15:07:42;99773.50;;;28.69;15.35
62164;BME280;48149;51.132;7.178;2023-02-28T15:10:16;99764.50;;;30.02;14.99
62164;BME280;48149;51.132;7.178;2023-02-28T15:12:45;99770.75;;;28.83;15.05
62164;BME280;48149;51.132;7.178;2023-02-28T15:15:14;99762.53;;;29.54;14.43
62164;BME280;48149;51.132;7.178;2023-02-28T15:17:44;99757.56;;;30.35;14.07
62164;BME280;48149;51.132;7.178;2023-02-28T15:20:14;99761.75;;;29.09;15.04
62164;BME280;48149;51.132;7.178;2023-02-28T15:22:40;99760.47;;;27.02;15.63
62164;BME280;48149;51.132;7.178;2023-02-28T15:25:05;99763.81;;;28.90;15.61
62164;BME280;48149;51.132;7.178;2023-02-28T15:27:33;99758.19;;;26.16;15.55
62164;BME280;48149;51.132;7.178;2023-02-28T15:30:04;99757.19;;;25.60;16.78
62164;BME280;48149;51.132;7.178;2023-02-28T15:32:31;99762.78;;;28.15;15.77
62164;BME280;48149;51.132;7.178;2023-02-28T15:34:57;99758.72;;;25.66;16.73
62164;BME280;48149;51.132;7.178;2023-02-28T15:39:52;99755.47;;;25.06;17.75
62164;BME280;48149;51.132;7.178;2023-02-28T15:42:19;99756.00;;;24.69;17.40
62164;BME280;48149;51.132;7.178;2023-02-28T15:44:44;99756.03;;;25.03;17.21
62164;BME280;48149;51.132;7.178;2023-02-28T15:47:23;99756.09;;;26.08;16.85
62164;BME280;48149;51.132;7.178;2023-02-28T15:52:28;99755.88;;;24.46;17.40